Time;durP1;ratioP1;P1;durP2;ratioP2;P2;SDS_P1;SDS_P2;PMS_P1;PMS_P2;Temp;Humidity;BMP_temperature;BMP_pressure;BME280_temperature;BME280_humidity;BME280_pressure;Samples;Min_cycle;Max_cycle;Signal;HPM_P1;HPM_P2
2023/07/18 00:01:58;;;;;;;6.30;3.80;;;;;;;;;;5071847;28;20036;-59
2023/07/18 00:04:25;;;;;;;6.60;3.90;;;;;;;;;;5071106;28;20032;-58
2023/07/18 00:06:51;;;;;;;6.85;4.00;;;;;;;;;;5071903;28;20099;-58
2023/07/18 00:09:17;;;;;;;6.00;3.60;;;;;;;;;;5071493;28;20071;-58
2023/07/18 00:11:44;;;;;;;6.30;3.70;;;;;;;;;;5054025;28;20075;-57
2023/07/18 00:14:20;;;;;;;6.03;3.58;;;;;;;;;;5071073;28;20024;-52
2023/07/18 00:16:45;;;;;;;7.55;3.97;;;;;;;;;;5053789;28;20020;-58
2023/07/18 00:19:12;;;;;;;6.28;3.75;;;;;;;;;;5053601;28;20066;-58
2023/07/18 00:21:41;;;;;;;7.22;4.25;;;;;;;;;;5071795;28;20044;-58
2023/07/18 00:24:07;;;;;;;6.70;3.95;;;;;;;;;;5070887;28;20099;-56
2023/07/18 00:26:33;;;;;;;6.32;3.72;;;;;;;;;;5071401;28;20059;-54
2023/07/18 00:28:59;;;;;;;6.28;3.70;;;;;;;;;;5063422;28;20416;-56
2023/07/18 00:31:26;;;;;;;5.93;3.53;;;;;;;;;;5071371;28;20021;-56
2023/07/18 00:33:52;;;;;;;5.43;3.30;;;;;;;;;;5071181;28;20035;-53
2023/07/18 00:36:18;;;;;;;6.00;3.60;;;;;;;;;;5071222;28;20407;-57
2023/07/18 00:38:44;;;;;;;6.57;3.85;;;;;;;;;;5071358;28;20035;-55
2023/07/18 00:41:11;;;;;;;6.82;3.92;;;;;;;;;;5071374;28;20400;-58
2023/07/18 00:43:37;;;;;;;6.20;3.70;;;;;;;;;;5071337;28;20024;-54
2023/07/18 00:46:04;;;;;;;6.55;3.85;;;;;;;;;;5070591;28;20060;-56
2023/07/18 00:48:32;;;;;;;5.90;3.50;;;;;;;;;;5071228;28;20085;-56
2023/07/18 00:50:58;;;;;;;6.25;3.80;;;;;;;;;;5071308;28;20031;-56
2023/07/18 00:53:25;;;;;;;6.70;3.85;;;;;;;;;;5053334;28;20115;-57
2023/07/18 00:55:51;;;;;;;7.55;4.40;;;;;;;;;;5070385;28;20056;-58
2023/07/18 00:58:17;;;;;;;6.30;3.70;;;;;;;;;;5071169;28;20094;-56
2023/07/18 01:00:43;;;;;;;6.20;3.70;;;;;;;;;;5053467;28;20487;-57
2023/07/18 01:03:09;;;;;;;6.05;3.60;;;;;;;;;;5071030;28;20140;-57
2023/07/18 01:05:35;;;;;;;6.75;4.38;;;;;;;;;;5070367;28;20024;-56
2023/07/18 01:08:03;;;;;;;6.20;3.70;;;;;;;;;;5070763;28;20466;-54
2023/07/18 01:10:29;;;;;;;6.90;4.10;;;;;;;;;;5072838;28;20025;-56
2023/07/18 01:12:56;;;;;;;6.03;3.60;;;;;;;;;;5074871;28;20447;-56
2023/07/18 01:15:23;;;;;;;6.50;3.80;;;;;;;;;;5074085;28;20052;-57
2023/07/18 01:17:49;;;;;;;8.85;4.40;;;;;;;;;;5074656;28;20024;-59
2023/07/18 01:20:18;;;;;;;6.20;3.70;;;;;;;;;;5074720;28;20024;-54
2023/07/18 01:22:49;;;;;;;7.40;4.38;;;;;;;;;;5074733;28;20397;-56
2023/07/18 01:25:16;;;;;;;6.53;3.90;;;;;;;;;;5073845;28;20403;-57
2023/07/18 01:27:43;;;;;;;6.68;3.90;;;;;;;;;;5074601;28;20112;-59
2023/07/18 01:30:09;;;;;;;6.38;3.75;;;;;;;;;;5074628;28;20100;-58
2023/07/18 01:32:35;;;;;;;6.70;3.90;;;;;;;;;;5074674;28;20044;-57
2023/07/18 01:35:03;;;;;;;5.90;3.42;;;;;;;;;;5073855;28;20377;-56
2023/07/18 01:37:29;;;;;;;5.90;3.50;;;;;;;;;;5074617;28;20028;-59
2023/07/18 01:39:55;;;;;;;6.20;3.65;;;;;;;;;;5074542;28;20068;-59
2023/07/18 01:42:21;;;;;;;6.10;3.60;;;;;;;;;;5074562;28;20111;-58
2023/07/18 01:44:47;;;;;;;14.63;5.90;;;;;;;;;;5073842;28;20029;-58
2023/07/18 01:47:13;;;;;;;5.80;3.50;;;;;;;;;;5074038;28;20040;-54
2023/07/18 01:49:39;;;;;;;6.40;3.80;;;;;;;;;;5074087;28;20048;-60
2023/07/18 01:52:05;;;;;;;6.32;3.75;;;;;;;;;;5074126;28;20024;-59
2023/07/18 01:54:31;;;;;;;5.60;3.30;;;;;;;;;;5073473;28;20069;-56
2023/07/18 01:56:57;;;;;;;5.78;3.40;;;;;;;;;;5073996;28;20051;-56
2023/07/18 01:59:23;;;;;;;5.50;3.25;;;;;;;;;;5074097;28;20151;-58
2023/07/18 02:01:51;;;;;;;7.93;4.35;;;;;;;;;;5073859;28;20036;-56
2023/07/18 02:04:18;;;;;;;5.60;3.30;;;;;;;;;;5073188;28;20024;-58
2023/07/18 02:06:44;;;;;;;5.90;3.50;;;;;;;;;;5073963;28;20122;-57
2023/07/18 02:09:11;;;;;;;7.38;4.43;;;;;;;;;;5073511;28;20119;-54
2023/07/18 02:11:37;;;;;;;5.78;3.40;;;;;;;;;;5073587;28;20024;-56
2023/07/18 02:14:03;;;;;;;5.70;3.33;;;;;;;;;;5073148;28;20096;-55
2023/07/18 02:16:29;;;;;;;6.40;3.75;;;;;;;;;;5073816;28;20016;-58
2023/07/18 02:18:56;;;;;;;7.13;3.95;;;;;;;;;;5073450;28;20086;-57
2023/07/18 02:21:22;;;;;;;5.50;3.30;;;;;;;;;;5073379;28;20477;-55
2023/07/18 02:23:48;;;;;;;5.97;3.55;;;;;;;;;;5073342;28;20039;-57
2023/07/18 02:26:14;;;;;;;6.80;4.05;;;;;;;;;;5072857;28;20033;-58
2023/07/18 02:28:40;;;;;;;6.78;3.97;;;;;;;;;;5055403;28;20123;-55
2023/07/18 02:31:06;;;;;;;6.15;3.65;;;;;;;;;;5055371;28;20024;-53
2023/07/18 02:33:32;;;;;;;5.70;3.40;;;;;;;;;;5073384;28;20021;-57
2023/07/18 02:35:58;;;;;;;5.55;3.25;;;;;;;;;;5072581;28;20017;-58
2023/07/18 02:38:24;;;;;;;9.00;3.97;;;;;;;;;;5073214;28;20442;-57
2023/07/18 02:40:50;;;;;;;8.90;4.57;;;;;;;;;;5073196;28;20028;-54
2023/07/18 02:43:17;;;;;;;5.65;3.35;;;;;;;;;;5073202;28;20029;-57
2023/07/18 02:45:43;;;;;;;5.60;3.33;;;;;;;;;;5072407;28;20024;-59
2023/07/18 02:48:09;;;;;;;6.93;4.35;;;;;;;;;;5072937;28;20048;-56
2023/07/18 02:50:35;;;;;;;5.40;3.20;;;;;;;;;;5072909;28;20047;-59
2023/07/18 02:53:02;;;;;;;7.15;4.03;;;;;;;;;;5073047;28;20024;-58
2023/07/18 02:55:29;;;;;;;5.85;3.50;;;;;;;;;;5054208;28;20032;-58
2023/07/18 02:57:55;;;;;;;6.57;3.88;;;;;;;;;;5072897;28;20444;-57
2023/07/18 03:00:25;;;;;;;7.40;4.03;;;;;;;;;;5072847;28;20068;-55
2023/07/18 03:02:52;;;;;;;7.25;4.22;;;;;;;;;;5072887;28;20031;-55
2023/07/18 03:05:19;;;;;;;6.20;3.60;;;;;;;;;;5071858;28;20107;-54
2023/07/18 03:07:48;;;;;;;6.13;3.60;;;;;;;;;;5072410;28;20043;-57
2023/07/18 03:10:15;;;;;;;6.30;3.70;;;;;;;;;;5072254;28;20115;-58
2023/07/18 03:12:41;;;;;;;6.40;4.00;;;;;;;;;;5072873;28;20439;-56
2023/07/18 03:15:10;;;;;;;5.60;3.33;;;;;;;;;;5071856;28;20054;-59
2023/07/18 03:17:36;;;;;;;6.53;3.80;;;;;;;;;;5072388;28;20388;-54
2023/07/18 03:20:16;;;;;;;7.20;4.32;;;;;;;;;;5072518;28;20020;-57
2023/07/18 03:22:42;;;;;;;6.18;3.67;;;;;;;;;;5072542;28;20028;-56
2023/07/18 03:25:08;;;;;;;7.55;4.25;;;;;;;;;;5071616;28;20469;-58
2023/07/18 03:27:34;;;;;;;6.30;3.70;;;;;;;;;;5072165;28;20031;-54
2023/07/18 03:30:00;;;;;;;7.65;4.70;;;;;;;;;;5072391;28;20029;-53
2023/07/18 03:32:26;;;;;;;6.38;3.80;;;;;;;;;;5072294;28;20040;-57
2023/07/18 03:34:52;;;;;;;5.60;3.40;;;;;;;;;;5070659;28;20020;-58
2023/07/18 03:37:18;;;;;;;6.47;3.83;;;;;;;;;;5054432;28;20500;-55
2023/07/18 03:39:44;;;;;;;7.25;4.20;;;;;;;;;;5072012;28;20063;-55
2023/07/18 03:42:10;;;;;;;6.88;3.97;;;;;;;;;;5072137;28;20021;-53
2023/07/18 03:44:36;;;;;;;6.03;3.60;;;;;;;;;;5071169;28;20540;-54
2023/07/18 03:47:02;;;;;;;10.27;4.80;;;;;;;;;;5071642;28;20032;-56
2023/07/18 03:49:29;;;;;;;7.43;4.15;;;;;;;;;;5071669;28;20024;-56
2023/07/18 03:51:55;;;;;;;6.07;3.60;;;;;;;;;;5071908;28;20074;-56
2023/07/18 03:54:21;;;;;;;7.53;4.43;;;;;;;;;;5071134;28;20427;-54
2023/07/18 03:56:47;;;;;;;6.50;3.85;;;;;;;;;;5071847;28;20028;-53
2023/07/18 03:59:13;;;;;;;6.00;3.60;;;;;;;;;;5071686;28;20029;-57
2023/07/18 04:01:39;;;;;;;6.90;4.00;;;;;;;;;;5071701;28;20028;-56
2023/07/18 04:04:05;;;;;;;8.80;5.28;;;;;;;;;;5071183;28;20028;-54
2023/07/18 04:06:32;;;;;;;7.32;4.35;;;;;;;;;;5071590;28;20056;-58
2023/07/18 04:08:58;;;;;;;7.00;4.15;;;;;;;;;;5071631;28;20443;-54
2023/07/18 04:11:24;;;;;;;6.55;3.88;;;;;;;;;;5071573;28;20028;-55
2023/07/18 04:13:50;;;;;;;7.07;4.18;;;;;;;;;;5071472;28;20073;-58
2023/07/18 04:16:16;;;;;;;6.82;4.05;;;;;;;;;;5071218;28;20078;-57
2023/07/18 04:18:43;;;;;;;7.32;4.30;;;;;;;;;;5071648;28;20021;-54
2023/07/18 04:21:09;;;;;;;7.10;4.10;;;;;;;;;;5071862;28;20055;-56
2023/07/18 04:23:35;;;;;;;6.90;4.03;;;;;;;;;;5054007;28;20711;-52
2023/07/18 04:26:02;;;;;;;7.65;4.82;;;;;;;;;;5071284;28;20017;-50
2023/07/18 04:28:28;;;;;;;6.57;3.90;;;;;;;;;;5071830;28;20048;-57
2023/07/18 04:30:55;;;;;;;8.00;5.20;;;;;;;;;;5071585;28;20020;-55
2023/07/18 04:33:21;;;;;;;7.30;4.35;;;;;;;;;;5071560;28;20431;-56
2023/07/18 04:35:47;;;;;;;7.07;4.15;;;;;;;;;;5070659;28;20027;-56
2023/07/18 04:38:16;;;;;;;7.70;4.60;;;;;;;;;;5053437;28;20027;-55
2023/07/18 04:40:42;;;;;;;7.38;4.38;;;;;;;;;;5071490;28;20432;-56
2023/07/18 04:43:08;;;;;;;9.32;5.47;;;;;;;;;;5071380;28;20035;-58
2023/07/18 04:45:41;;;;;;;6.95;4.15;;;;;;;;;;5072591;28;20039;-56
2023/07/18 04:48:07;;;;;;;6.85;4.20;;;;;;;;;;5075147;28;20507;-57
2023/07/18 04:50:33;;;;;;;7.68;4.53;;;;;;;;;;5075462;28;20020;-55
2023/07/18 04:52:59;;;;;;;6.68;3.97;;;;;;;;;;5075348;28;20473;-58
2023/07/18 04:55:25;;;;;;;7.30;4.30;;;;;;;;;;5074491;28;20040;-56
2023/07/18 04:57:51;;;;;;;7.25;4.32;;;;;;;;;;5074888;28;20048;-54
2023/07/18 05:00:17;;;;;;;7.10;4.20;;;;;;;;;;5075173;28;20361;-56
2023/07/18 05:02:43;;;;;;;6.70;4.00;;;;;;;;;;5057309;28;20111;-53
2023/07/18 05:05:10;;;;;;;8.57;5.35;;;;;;;;;;5074249;28;20430;-56
2023/07/18 05:07:36;;;;;;;7.13;4.20;;;;;;;;;;5074684;28;20033;-55
2023/07/18 05:10:01;;;;;;;6.45;3.88;;;;;;;;;;5057007;28;20040;-52
2023/07/18 05:12:27;;;;;;;7.63;4.65;;;;;;;;;;5074869;28;20040;-56
2023/07/18 05:14:53;;;;;;;6.65;3.95;;;;;;;;;;5074007;28;20388;-57
2023/07/18 05:17:19;;;;;;;6.50;3.88;;;;;;;;;;5074656;28;20040;-56
2023/07/18 05:19:45;;;;;;;7.60;4.47;;;;;;;;;;5074554;28;20387;-59
2023/07/18 05:22:12;;;;;;;7.88;6.18;;;;;;;;;;5074499;28;20095;-57
2023/07/18 05:24:39;;;;;;;7.32;4.57;;;;;;;;;;5073660;28;20025;-56
2023/07/18 05:27:05;;;;;;;6.80;3.97;;;;;;;;;;5056306;28;20035;-56
2023/07/18 05:29:31;;;;;;;6.50;3.90;;;;;;;;;;5074245;28;20029;-50
2023/07/18 05:31:57;;;;;;;6.03;3.60;;;;;;;;;;5074409;28;20112;-55
2023/07/18 05:34:23;;;;;;;6.20;3.60;;;;;;;;;;5073297;28;20021;-57
2023/07/18 05:36:49;;;;;;;6.57;3.97;;;;;;;;;;5074286;28;20047;-52
2023/07/18 05:39:15;;;;;;;6.75;3.97;;;;;;;;;;5056009;28;20507;-52
2023/07/18 05:41:41;;;;;;;6.47;3.90;;;;;;;;;;5056072;28;20028;-55
2023/07/18 05:44:07;;;;;;;6.80;4.00;;;;;;;;;;5073756;28;20025;-54
2023/07/18 05:46:33;;;;;;;11.43;4.13;;;;;;;;;;5074380;28;20031;-57
2023/07/18 05:48:59;;;;;;;6.97;4.10;;;;;;;;;;5074055;28;20036;-51
2023/07/18 05:51:25;;;;;;;6.45;3.80;;;;;;;;;;5074313;28;20400;-56
2023/07/18 05:53:51;;;;;;;6.70;3.90;;;;;;;;;;5073912;28;20036;-54
2023/07/18 05:56:17;;;;;;;7.20;4.30;;;;;;;;;;5055029;28;20028;-57
2023/07/18 05:58:43;;;;;;;7.55;4.53;;;;;;;;;;5073936;28;20031;-54
2023/07/18 06:01:12;;;;;;;15.13;5.32;;;;;;;;;;5073768;28;20024;-59
2023/07/18 06:03:38;;;;;;;7.50;4.43;;;;;;;;;;5073884;28;20027;-53
2023/07/18 06:06:05;;;;;;;6.45;3.85;;;;;;;;;;5073057;28;20025;-55
2023/07/18 06:08:31;;;;;;;6.47;3.83;;;;;;;;;;5073402;28;20042;-57
2023/07/18 06:10:57;;;;;;;7.20;4.20;;;;;;;;;;5073257;28;20100;-57
2023/07/18 06:13:23;;;;;;;6.90;4.10;;;;;;;;;;5073326;28;20043;-53
2023/07/18 06:15:50;;;;;;;7.65;4.55;;;;;;;;;;5073382;28;20388;-57
2023/07/18 06:18:16;;;;;;;7.10;4.10;;;;;;;;;;5073250;28;20455;-53
2023/07/18 06:20:43;;;;;;;7.00;4.22;;;;;;;;;;5067353;28;20074;-55
2023/07/18 06:23:09;;;;;;;6.85;4.10;;;;;;;;;;5067210;28;20024;-57
2023/07/18 06:25:35;;;;;;;6.28;3.70;;;;;;;;;;5072366;28;20055;-58
2023/07/18 06:28:02;;;;;;;7.55;4.25;;;;;;;;;;5048768;28;20029;-53
2023/07/18 06:30:28;;;;;;;6.07;3.60;;;;;;;;;;5053051;28;20537;-57
2023/07/18 06:32:55;;;;;;;7.25;4.75;;;;;;;;;;5053085;28;20116;-56
2023/07/18 06:35:21;;;;;;;6.47;3.83;;;;;;;;;;5052091;28;20017;-58
2023/07/18 06:37:47;;;;;;;7.18;4.28;;;;;;;;;;5069013;28;20024;-54
2023/07/18 06:40:13;;;;;;;6.30;3.80;;;;;;;;;;5054721;28;20021;-57
2023/07/18 06:42:39;;;;;;;6.65;4.00;;;;;;;;;;5073069;28;20024;-57
2023/07/18 06:45:06;;;;;;;6.50;3.80;;;;;;;;;;5072114;28;20033;-56
2023/07/18 06:47:32;;;;;;;6.53;3.83;;;;;;;;;;5072781;28;20074;-56
2023/07/18 06:49:58;;;;;;;5.90;3.50;;;;;;;;;;5072903;28;20036;-55
2023/07/18 06:52:24;;;;;;;7.20;4.00;;;;;;;;;;5072523;28;20047;-56
2023/07/18 06:54:50;;;;;;;6.78;4.20;;;;;;;;;;5055936;28;20025;-55
2023/07/18 06:57:16;;;;;;;7.15;4.30;;;;;;;;;;5052716;28;20607;-59
2023/07/18 06:59:42;;;;;;;6.55;3.85;;;;;;;;;;5052438;28;20009;-57
2023/07/18 07:02:10;;;;;;;7.78;4.57;;;;;;;;;;5052563;28;20070;-56
2023/07/18 07:04:36;;;;;;;7.00;4.10;;;;;;;;;;5051513;28;20017;-54
2023/07/18 07:07:03;;;;;;;7.35;4.35;;;;;;;;;;5052484;28;20504;-58
2023/07/18 07:09:29;;;;;;;7.88;4.35;;;;;;;;;;5052268;28;20040;-56
2023/07/18 07:11:55;;;;;;;6.60;3.92;;;;;;;;;;5052446;28;20098;-56
2023/07/18 07:14:21;;;;;;;7.22;4.28;;;;;;;;;;5051580;28;20388;-57
2023/07/18 07:16:47;;;;;;;6.63;3.97;;;;;;;;;;5052294;28;20025;-54
2023/07/18 07:19:13;;;;;;;9.77;5.55;;;;;;;;;;5051268;28;20051;-56
2023/07/18 07:21:39;;;;;;;7.95;4.78;;;;;;;;;;5066854;28;20058;-58
2023/07/18 07:24:05;;;;;;;8.02;4.82;;;;;;;;;;5071122;28;20051;-58
2023/07/18 07:26:32;;;;;;;6.85;4.07;;;;;;;;;;5071494;28;20024;-55
2023/07/18 07:28:58;;;;;;;7.15;4.30;;;;;;;;;;5071555;28;20040;-53
2023/07/18 07:31:24;;;;;;;7.50;4.50;;;;;;;;;;5071672;28;20370;-55
2023/07/18 07:33:50;;;;;;;7.20;4.30;;;;;;;;;;5071341;28;20031;-54
2023/07/18 07:36:16;;;;;;;7.35;4.40;;;;;;;;;;5071143;28;20042;-52
2023/07/18 07:38:42;;;;;;;20.50;5.55;;;;;;;;;;5071337;28;20028;-53
2023/07/18 07:41:08;;;;;;;20.58;9.63;;;;;;;;;;5071551;28;20036;-51
2023/07/18 07:43:34;;;;;;;22.30;9.02;;;;;;;;;;5065627;28;20481;-51
2023/07/18 07:46:01;;;;;;;21.27;9.63;;;;;;;;;;5065120;28;20029;-49
2023/07/18 07:48:27;;;;;;;17.88;9.15;;;;;;;;;;5057149;28;20388;-48
2023/07/18 07:50:53;;;;;;;22.45;9.65;;;;;;;;;;5046628;28;20564;-52
2023/07/18 07:53:19;;;;;;;21.55;10.13;;;;;;;;;;5052121;28;20155;-50
2023/07/18 07:55:45;;;;;;;19.00;10.52;;;;;;;;;;5067833;28;20115;-55
2023/07/18 07:58:11;;;;;;;18.52;10.52;;;;;;;;;;5071446;28;20095;-51
2023/07/18 08:00:37;;;;;;;19.30;10.10;;;;;;;;;;5071818;28;20388;-50
2023/07/18 08:03:03;;;;;;;20.20;9.40;;;;;;;;;;5072332;28;20530;-58
2023/07/18 08:05:29;;;;;;;25.95;10.63;;;;;;;;;;5072699;28;20028;-57
2023/07/18 08:07:55;;;;;;;19.55;10.05;;;;;;;;;;5072187;28;20496;-57
2023/07/18 08:10:21;;;;;;;20.20;10.25;;;;;;;;;;5071994;28;20443;-60
2023/07/18 08:12:47;;;;;;;18.98;9.77;;;;;;;;;;5070918;28;20526;-57
2023/07/18 08:15:13;;;;;;;18.70;9.70;;;;;;;;;;5070531;28;20028;-57
2023/07/18 08:17:39;;;;;;;21.85;9.48;;;;;;;;;;5071269;28;20024;-59
2023/07/18 08:20:08;;;;;;;18.73;9.90;;;;;;;;;;5070343;28;20024;-59
2023/07/18 08:22:34;;;;;;;18.80;9.85;;;;;;;;;;5062155;28;20036;-56
2023/07/18 08:25:00;;;;;;;19.52;9.52;;;;;;;;;;5057991;28;20119;-59
2023/07/18 08:27:26;;;;;;;18.55;9.63;;;;;;;;;;5055237;28;20104;-53
2023/07/18 08:29:52;;;;;;;17.10;8.90;;;;;;;;;;5041320;28;20064;-57
2023/07/18 08:32:18;;;;;;;20.52;9.90;;;;;;;;;;5042581;28;20500;-56
2023/07/18 08:34:44;;;;;;;18.05;9.52;;;;;;;;;;5041538;28;20023;-55
2023/07/18 08:37:10;;;;;;;20.48;10.85;;;;;;;;;;5067300;28;20020;-55
2023/07/18 08:39:37;;;;;;;18.88;9.95;;;;;;;;;;5058545;28;20090;-55
2023/07/18 08:42:04;;;;;;;18.85;9.88;;;;;;;;;;5058662;28;20377;-54
2023/07/18 08:44:31;;;;;;;17.77;9.30;;;;;;;;;;5049954;28;20469;-59
2023/07/18 08:47:02;;;;;;;18.52;9.48;;;;;;;;;;5050671;28;20104;-55
2023/07/18 08:49:30;;;;;;;18.13;11.00;;;;;;;;;;5050638;28;20120;-56
2023/07/18 08:51:56;;;;;;;16.13;8.97;;;;;;;;;;5050779;28;20477;-57
2023/07/18 08:54:22;;;;;;;18.55;9.15;;;;;;;;;;5050031;28;20021;-58
2023/07/18 08:56:48;;;;;;;15.93;8.68;;;;;;;;;;5050972;28;20029;-55
2023/07/18 08:59:15;;;;;;;16.27;9.18;;;;;;;;;;5050757;28;20032;-55
2023/07/18 09:01:47;;;;;;;23.05;9.10;;;;;;;;;;5050809;28;20401;-59
2023/07/18 09:04:13;;;;;;;16.73;8.40;;;;;;;;;;5050012;28;20029;-57
2023/07/18 09:06:47;;;;;;;15.70;8.93;;;;;;;;;;5050851;28;20366;-57
2023/07/18 09:09:21;;;;;;;16.98;8.60;;;;;;;;;;5050596;28;20033;-56
2023/07/18 09:11:57;;;;;;;18.23;9.13;;;;;;;;;;5050693;28;20032;-56
2023/07/18 09:14:24;;;;;;;14.68;8.93;;;;;;;;;;5049835;28;20063;-56
2023/07/18 09:16:50;;;;;;;18.35;8.98;;;;;;;;;;5032586;28;20056;-56
2023/07/18 09:19:16;;;;;;;15.02;8.48;;;;;;;;;;5050355;28;20453;-55
2023/07/18 09:21:42;;;;;;;15.30;8.77;;;;;;;;;;5062470;28;20083;-59
2023/07/18 09:24:08;;;;;;;19.77;8.75;;;;;;;;;;5069962;28;20123;-58
2023/07/18 09:26:33;;;;;;;17.75;9.60;;;;;;;;;;5052456;28;20051;-57
2023/07/18 09:29:01;;;;;;;17.05;9.13;;;;;;;;;;5066884;28;20028;-59
2023/07/18 09:31:27;;;;;;;15.73;9.00;;;;;;;;;;5070260;28;20028;-58
2023/07/18 09:33:54;;;;;;;16.33;9.30;;;;;;;;;;5073629;28;20070;-55
2023/07/18 09:36:21;;;;;;;15.45;9.05;;;;;;;;;;5073582;28;20012;-56
2023/07/18 09:38:47;;;;;;;16.17;9.57;;;;;;;;;;5073638;28;20480;-56
2023/07/18 09:41:17;;;;;;;16.25;9.85;;;;;;;;;;5074061;28;20063;-58
2023/07/18 09:43:46;;;;;;;20.60;10.73;;;;;;;;;;5073790;28;20020;-58
2023/07/18 09:46:13;;;;;;;16.58;9.98;;;;;;;;;;5073283;28;20016;-56
2023/07/18 09:48:40;;;;;;;21.15;11.70;;;;;;;;;;5073698;28;20476;-56
2023/07/18 09:51:09;;;;;;;15.15;10.73;;;;;;;;;;5073817;28;20024;-57
2023/07/18 09:53:35;;;;;;;;;;;;;;;;;;5074473;28;20039;-58
2023/07/18 09:56:01;;;;;;;15.73;10.52;;;;;;;;;;5072775;28;19908;-57
2023/07/18 09:58:27;;;;;;;16.88;10.85;;;;;;;;;;5073101;28;20071;-58
2023/07/18 10:00:54;;;;;;;16.50;10.57;;;;;;;;;;5071255;28;20043;-59
2023/07/18 10:03:21;;;;;;;16.17;10.70;;;;;;;;;;5072662;28;20028;-54
2023/07/18 10:05:47;;;;;;;16.00;10.75;;;;;;;;;;5054529;28;20455;-58
2023/07/18 10:08:13;;;;;;;17.60;10.93;;;;;;;;;;5054976;28;20117;-56
2023/07/18 10:10:39;;;;;;;19.20;10.73;;;;;;;;;;5073069;28;20035;-58
2023/07/18 10:13:05;;;;;;;16.40;11.10;;;;;;;;;;5073040;28;20392;-58
2023/07/18 10:15:51;;;;;;;15.40;10.77;;;;;;;;;;5072561;28;20431;-60
2023/07/18 10:18:17;;;;;;;15.98;11.27;;;;;;;;;;5073103;28;20025;-59
2023/07/18 10:20:56;;;;;;;17.52;11.20;;;;;;;;;;5073246;28;20059;-58
2023/07/18 10:23:38;;;;;;;18.90;11.18;;;;;;;;;;5073160;28;20048;-60
2023/07/18 10:26:05;;;;;;;16.17;11.23;;;;;;;;;;5072603;28;20036;-55
2023/07/18 10:29:01;;;;;;;17.15;11.55;;;;;;;;;;5055732;28;20028;-55
2023/07/18 10:31:33;;;;;;;16.98;11.85;;;;;;;;;;5065546;28;20043;-54
2023/07/18 10:34:09;;;;;;;17.80;11.95;;;;;;;;;;5073028;28;20094;-57
2023/07/18 10:36:35;;;;;;;16.38;11.10;;;;;;;;;;5072699;28;20032;-57
2023/07/18 10:39:08;;;;;;;17.02;10.88;;;;;;;;;;5054611;28;20123;-58
2023/07/18 10:41:35;;;;;;;17.27;10.80;;;;;;;;;;5072684;28;20158;-54
2023/07/18 10:44:01;;;;;;;16.85;11.30;;;;;;;;;;5051445;28;20387;-56
2023/07/18 10:46:36;;;;;;;15.35;10.70;;;;;;;;;;5071898;28;20028;-55
2023/07/18 10:49:03;;;;;;;16.40;11.00;;;;;;;;;;5072064;28;20047;-53
2023/07/18 10:51:35;;;;;;;15.43;10.95;;;;;;;;;;5072406;28;20106;-58
2023/07/18 10:54:02;;;;;;;16.13;10.80;;;;;;;;;;5071205;28;20029;-57
2023/07/18 10:56:28;;;;;;;16.48;10.82;;;;;;;;;;5066313;28;20111;-51
2023/07/18 10:58:57;;;;;;;15.40;11.05;;;;;;;;;;5071717;28;20036;-51
2023/07/18 11:01:27;;;;;;;15.30;10.70;;;;;;;;;;5063650;28;20103;-54
2023/07/18 11:03:53;;;;;;;16.63;10.60;;;;;;;;;;5063804;28;20028;-56
2023/07/18 11:06:21;;;;;;;15.13;10.90;;;;;;;;;;5068606;28;20137;-58
2023/07/18 11:08:47;;;;;;;18.92;11.00;;;;;;;;;;5064239;28;20115;-58
2023/07/18 11:11:14;;;;;;;16.08;10.95;;;;;;;;;;5046905;28;20020;-51
2023/07/18 11:13:43;;;;;;;17.65;11.57;;;;;;;;;;5064890;28;20024;-58
2023/07/18 11:16:14;;;;;;;16.17;10.80;;;;;;;;;;5067611;28;20496;-57
2023/07/18 11:18:41;;;;;;;15.93;11.32;;;;;;;;;;5052888;28;20505;-54
2023/07/18 11:21:08;;;;;;;17.48;11.13;;;;;;;;;;5061350;28;20073;-54
2023/07/18 11:23:35;;;;;;;15.35;11.10;;;;;;;;;;5072599;28;20028;-54
2023/07/18 11:26:14;;;;;;;17.23;11.63;;;;;;;;;;5071552;28;20025;-54
2023/07/18 11:28:41;;;;;;;17.80;11.75;;;;;;;;;;5071876;28;20059;-58
2023/07/18 11:31:28;;;;;;;16.42;11.32;;;;;;;;;;5071971;28;20400;-54
2023/07/18 11:33:55;;;;;;;16.23;11.50;;;;;;;;;;5071444;28;20013;-50
2023/07/18 11:36:24;;;;;;;16.55;11.63;;;;;;;;;;5071582;28;20071;-57
2023/07/18 11:38:51;;;;;;;17.20;11.32;;;;;;;;;;5053827;28;20032;-51
2023/07/18 11:41:34;;;;;;;16.88;11.80;;;;;;;;;;5071737;28;20100;-52
2023/07/18 11:44:01;;;;;;;19.33;12.30;;;;;;;;;;5071143;28;20028;-53
2023/07/18 11:46:37;;;;;;;17.30;12.13;;;;;;;;;;5069481;28;20055;-56
2023/07/18 11:49:03;;;;;;;16.58;12.07;;;;;;;;;;5068912;28;20055;-53
2023/07/18 11:51:31;;;;;;;17.67;12.10;;;;;;;;;;5033260;28;20021;-55
2023/07/18 11:53:57;;;;;;;16.90;12.33;;;;;;;;;;5050700;28;20041;-55
2023/07/18 11:56:23;;;;;;;17.60;12.25;;;;;;;;;;5051022;28;20032;-52
2023/07/18 11:58:49;;;;;;;17.15;12.45;;;;;;;;;;5051817;28;20379;-56
2023/07/18 12:01:15;;;;;;;17.77;12.10;;;;;;;;;;5051502;28;20028;-50
2023/07/18 12:03:41;;;;;;;17.98;12.43;;;;;;;;;;5051440;28;20021;-56
2023/07/18 12:06:07;;;;;;;17.50;12.73;;;;;;;;;;5032307;28;20430;-53
2023/07/18 12:08:33;;;;;;;17.98;12.23;;;;;;;;;;5050693;28;20033;-54
2023/07/18 12:10:59;;;;;;;19.90;12.65;;;;;;;;;;5033703;28;20111;-55
2023/07/18 12:13:25;;;;;;;16.55;13.10;;;;;;;;;;5050974;28;20029;-57
2023/07/18 12:15:53;;;;;;;16.40;12.43;;;;;;;;;;5051298;28;20025;-53
2023/07/18 12:18:20;;;;;;;16.83;12.63;;;;;;;;;;5050798;28;20032;-55
2023/07/18 12:20:46;;;;;;;17.65;12.73;;;;;;;;;;5054605;28;20104;-56
2023/07/18 12:23:12;;;;;;;16.75;12.98;;;;;;;;;;5070751;28;20024;-55
2023/07/18 12:25:38;;;;;;;16.75;13.18;;;;;;;;;;5070047;28;20029;-55
2023/07/18 12:28:05;;;;;;;16.85;13.10;;;;;;;;;;5060230;28;20488;-54
2023/07/18 12:30:31;;;;;;;16.65;13.13;;;;;;;;;;5071448;28;20025;-53
2023/07/18 12:32:58;;;;;;;17.15;12.90;;;;;;;;;;5053693;28;20027;-51
2023/07/18 12:35:24;;;;;;;16.67;12.50;;;;;;;;;;5052467;28;20027;-56
2023/07/18 12:37:50;;;;;;;18.30;12.77;;;;;;;;;;5071195;28;20433;-57
2023/07/18 12:40:18;;;;;;;17.35;13.10;;;;;;;;;;5071031;28;20396;-55
2023/07/18 12:42:44;;;;;;;16.73;12.60;;;;;;;;;;5070745;28;20044;-56
2023/07/18 12:45:11;;;;;;;15.95;12.68;;;;;;;;;;5069983;28;20021;-58
2023/07/18 12:47:37;;;;;;;17.48;12.80;;;;;;;;;;5071012;28;20024;-58
2023/07/18 12:50:04;;;;;;;17.02;13.05;;;;;;;;;;5052789;28;20017;-57
2023/07/18 12:52:30;;;;;;;16.90;12.65;;;;;;;;;;5052875;28;20021;-53
2023/07/18 12:54:56;;;;;;;18.48;13.60;;;;;;;;;;5067492;28;20024;-54
2023/07/18 12:57:22;;;;;;;17.00;12.70;;;;;;;;;;5064911;28;20044;-57
2023/07/18 12:59:48;;;;;;;15.90;12.32;;;;;;;;;;5070757;28;20392;-54
2023/07/18 13:02:14;;;;;;;16.58;12.55;;;;;;;;;;5070653;28;20025;-57
2023/07/18 13:04:40;;;;;;;16.17;13.07;;;;;;;;;;5053165;28;20021;-57
2023/07/18 13:07:07;;;;;;;19.55;13.20;;;;;;;;;;5053257;28;20028;-54
2023/07/18 13:09:33;;;;;;;16.55;12.85;;;;;;;;;;5054433;28;20049;-57
2023/07/18 13:11:59;;;;;;;15.90;12.32;;;;;;;;;;5054601;28;20029;-52
2023/07/18 13:14:25;;;;;;;16.40;12.27;;;;;;;;;;5035885;28;20025;-54
2023/07/18 13:16:51;;;;;;;17.27;12.90;;;;;;;;;;5054522;28;20021;-55
2023/07/18 13:19:17;;;;;;;17.50;12.18;;;;;;;;;;5054456;28;20036;-54
2023/07/18 13:21:43;;;;;;;15.85;12.13;;;;;;;;;;5066190;28;20469;-53
2023/07/18 13:24:09;;;;;;;16.00;12.55;;;;;;;;;;5073691;28;20024;-53
2023/07/18 13:26:36;;;;;;;16.60;12.75;;;;;;;;;;5074548;28;20050;-50
2023/07/18 13:29:03;;;;;;;17.90;12.43;;;;;;;;;;5055054;28;20051;-51
2023/07/18 13:31:29;;;;;;;15.88;12.13;;;;;;;;;;5073450;28;20021;-54
2023/07/18 13:33:55;;;;;;;17.33;12.27;;;;;;;;;;5055453;28;20345;-62
2023/07/18 13:36:21;;;;;;;16.55;12.80;;;;;;;;;;5056336;28;20427;-64
2023/07/18 13:38:47;;;;;;;17.23;12.55;;;;;;;;;;5074229;28;20078;-63
2023/07/18 13:41:14;;;;;;;16.77;13.10;;;;;;;;;;5073937;28;20103;-65
2023/07/18 13:43:40;;;;;;;17.45;13.20;;;;;;;;;;5074280;28;20017;-64
2023/07/18 13:46:07;;;;;;;16.52;13.15;;;;;;;;;;5073090;28;20101;-64
2023/07/18 13:48:33;;;;;;;17.23;13.27;;;;;;;;;;5073846;28;20016;-64
2023/07/18 13:50:59;;;;;;;16.65;13.35;;;;;;;;;;5073666;28;20020;-63
2023/07/18 13:53:25;;;;;;;21.33;13.70;;;;;;;;;;5073799;28;20036;-64
2023/07/18 13:55:51;;;;;;;18.17;13.00;;;;;;;;;;5073104;28;20024;-63
2023/07/18 13:58:17;;;;;;;17.00;12.82;;;;;;;;;;5073582;28;20028;-63
2023/07/18 14:00:43;;;;;;;18.15;13.18;;;;;;;;;;5073961;28;20032;-63
2023/07/18 14:03:09;;;;;;;18.15;13.00;;;;;;;;;;5073920;28;20449;-64
2023/07/18 14:05:36;;;;;;;16.92;13.30;;;;;;;;;;5054999;28;20025;-64
2023/07/18 14:08:03;;;;;;;16.00;13.25;;;;;;;;;;5073308;28;20400;-63
2023/07/18 14:10:29;;;;;;;17.00;13.00;;;;;;;;;;5064456;28;20024;-64
2023/07/18 14:12:55;;;;;;;18.08;13.68;;;;;;;;;;5054807;28;20050;-63
2023/07/18 14:15:21;;;;;;;16.42;13.23;;;;;;;;;;5070468;28;20531;-64
2023/07/18 14:17:47;;;;;;;17.88;13.50;;;;;;;;;;4711563;28;9999873;-63
2023/07/18 14:20:14;;;;;;;17.02;13.20;;;;;;;;;;5069405;28;20036;-62
2023/07/18 14:22:40;;;;;;;17.48;13.35;;;;;;;;;;5069350;28;20024;-61
2023/07/18 14:25:07;;;;;;;17.15;13.20;;;;;;;;;;5068727;28;20388;-63
2023/07/18 14:27:33;;;;;;;17.02;13.35;;;;;;;;;;5053894;28;20258;-62
2023/07/18 14:29:58;;;;;;;17.90;13.23;;;;;;;;;;5049160;28;20116;-62
2023/07/18 14:32:24;;;;;;;17.67;13.93;;;;;;;;;;5049337;28;20033;-62